CheckWX is a tool to help pilots better visualize weather data.  It is not intended as a substitute for an official pre-flight weather briefing.

11:07:07 UTC

KJKL TAF
Julian Carroll Airport
Jackson, Kentucky, USA
KJKL 240539Z 2406/2506 VRB06KT P6SM SCT050 BKN200 FM241600 VRB06KT P6SM VCSH SCT040 BKN150 FM242200 VRB04KT P6SM FEW100 SCT200

May-24@
06:00 UTC

May-24 @ 06:00 UTC

May-24@
16:00 UTC

May-24 @ 16:00 UTC

KJKL 240539Z 2406/2506 VRB06KT P6SM SCT050 BKN200
Wind
  • Variable at 6 KTS
Cloud Levels
  • Scattered at 5,000' AGL
  • Broken at 20,000' AGL

May-24@
16:00 UTC

May-24 @ 16:00 UTC

May-24@
22:00 UTC

May-24 @ 22:00 UTC

FM241600 VRB06KT P6SM VCSH SCT040 BKN150

From

From Standard forecast or significant change

Wind
  • Variable at 6 KTS
Cloud Levels
  • Scattered at 4,000' AGL
  • Broken at 15,000' AGL

May-24@
22:00 UTC

May-24 @ 22:00 UTC

May-25@
06:00 UTC

May-25 @ 06:00 UTC

FM242200 VRB04KT P6SM FEW100 SCT200

From

From Standard forecast or significant change

Wind
  • Variable at 4 KTS
Cloud Levels
  • Few at 10,000' AGL
  • Scattered at 20,000' AGL